sensor_id;sensor_type;location;lat;lon;timestamp;pressure;altitude;pressure_sealevel;temperature;humidity
55610;BME280;41486;52.502;13.486;2023-09-19T00:01:03;100078.19;;;18.07;100.00
55610;BME280;41486;52.502;13.486;2023-09-19T00:03:34;100078.19;;;18.07;100.00
55610;BME280;41486;52.502;13.486;2023-09-19T00:06:06;100081.66;;;18.08;100.00
55610;BME280;41486;52.502;13.486;2023-09-19T00:08:34;100080.94;;;17.99;100.00
55610;BME280;41486;52.502;13.486;2023-09-19T00:11:03;100075.66;;;18.14;100.00
55610;BME280;41486;52.502;13.486;2023-09-19T00:13:32;100074.44;;;18.17;100.00
55610;BME280;41486;52.502;13.486;2023-09-19T00:16:08;100079.03;;;18.23;100.00
55610;BME280;41486;52.502;13.486;2023-09-19T00:18:38;100075.56;;;18.22;100.00
55610;BME280;41486;52.502;13.486;2023-09-19T00:21:07;100075.25;;;18.17;100.00
55610;BME280;41486;52.502;13.486;2023-09-19T00:23:37;100069.09;;;18.02;100.00
55610;BME280;41486;52.502;13.486;2023-09-19T00:26:07;100066.63;;;18.15;100.00
55610;BME280;41486;52.502;13.486;2023-09-19T00:28:36;100068.59;;;18.51;100.00
55610;BME280;41486;52.502;13.486;2023-09-19T00:31:04;100069.78;;;18.34;100.00
55610;BME280;41486;52.502;13.486;2023-09-19T00:33:35;100069.59;;;18.20;100.00
55610;BME280;41486;52.502;13.486;2023-09-19T00:36:04;100072.03;;;18.07;100.00
55610;BME280;41486;52.502;13.486;2023-09-19T00:38:34;100069.94;;;18.02;100.00
55610;BME280;41486;52.502;13.486;2023-09-19T00:41:02;100070.97;;;18.31;100.00
55610;BME280;41486;52.502;13.486;2023-09-19T00:43:31;100071.81;;;18.47;100.00
55610;BME280;41486;52.502;13.486;2023-09-19T00:46:02;100063.34;;;18.43;100.00
55610;BME280;41486;52.502;13.486;2023-09-19T00:48:31;100065.28;;;18.49;100.00
55610;BME280;41486;52.502;13.486;2023-09-19T00:51:03;100061.69;;;18.42;100.00
55610;BME280;41486;52.502;13.486;2023-09-19T00:53:34;100069.59;;;18.35;100.00
55610;BME280;41486;52.502;13.486;2023-09-19T00:56:03;100072.47;;;17.95;100.00
55610;BME280;41486;52.502;13.486;2023-09-19T00:58:32;100070.56;;;18.04;100.00
55610;BME280;41486;52.502;13.486;2023-09-19T01:01:03;100074.59;;;18.00;100.00
55610;BME280;41486;52.502;13.486;2023-09-19T01:03:37;100077.97;;;17.71;100.00
55610;BME280;41486;52.502;13.486;2023-09-19T01:06:06;100086.06;;;17.77;100.00
55610;BME280;41486;52.502;13.486;2023-09-19T01:08:39;100074.97;;;17.74;100.00
55610;BME280;41486;52.502;13.486;2023-09-19T01:11:13;100070.75;;;17.56;100.00
55610;BME280;41486;52.502;13.486;2023-09-19T01:13:53;100068.97;;;17.72;100.00
55610;BME280;41486;52.502;13.486;2023-09-19T01:16:32;100068.25;;;17.78;100.00
55610;BME280;41486;52.502;13.486;2023-09-19T01:19:20;100084.00;;;17.64;100.00
55610;BME280;41486;52.502;13.486;2023-09-19T01:21:57;100082.34;;;17.63;100.00
55610;BME280;41486;52.502;13.486;2023-09-19T01:28:25;100079.81;;;17.70;100.00
55610;BME280;41486;52.502;13.486;2023-09-19T01:31:02;100065.19;;;17.66;100.00
55610;BME280;41486;52.502;13.486;2023-09-19T01:33:55;100076.38;;;17.61;100.00
55610;BME280;41486;52.502;13.486;2023-09-19T01:36:30;100071.41;;;17.58;100.00
55610;BME280;41486;52.502;13.486;2023-09-19T01:39:02;100075.19;;;17.64;100.00
55610;BME280;41486;52.502;13.486;2023-09-19T01:41:45;100077.03;;;17.63;100.00
55610;BME280;41486;52.502;13.486;2023-09-19T01:44:22;100081.03;;;17.59;100.00
55610;BME280;41486;52.502;13.486;2023-09-19T01:46:56;100082.53;;;17.62;100.00
55610;BME280;41486;52.502;13.486;2023-09-19T01:49:34;100085.53;;;17.59;100.00
55610;BME280;41486;52.502;13.486;2023-09-19T01:52:11;100080.03;;;17.60;100.00
55610;BME280;41486;52.502;13.486;2023-09-19T01:54:48;100084.34;;;17.61;100.00
55610;BME280;41486;52.502;13.486;2023-09-19T01:57:24;100083.53;;;17.61;100.00
55610;BME280;41486;52.502;13.486;2023-09-19T01:59:59;100073.69;;;17.61;100.00
55610;BME280;41486;52.502;13.486;2023-09-19T02:02:43;100079.88;;;17.62;100.00
55610;BME280;41486;52.502;13.486;2023-09-19T02:05:12;100081.03;;;17.59;100.00
55610;BME280;41486;52.502;13.486;2023-09-19T02:07:40;100087.59;;;17.48;100.00
55610;BME280;41486;52.502;13.486;2023-09-19T02:10:08;100087.78;;;17.70;100.00
55610;BME280;41486;52.502;13.486;2023-09-19T02:12:38;100089.66;;;17.61;100.00
55610;BME280;41486;52.502;13.486;2023-09-19T02:15:07;100096.94;;;17.67;100.00
55610;BME280;41486;52.502;13.486;2023-09-19T02:17:35;100098.53;;;17.54;100.00
55610;BME280;41486;52.502;13.486;2023-09-19T02:20:07;100092.50;;;17.60;100.00
55610;BME280;41486;52.502;13.486;2023-09-19T02:22:40;100094.28;;;17.44;100.00
55610;BME280;41486;52.502;13.486;2023-09-19T02:25:08;100102.50;;;17.34;100.00
55610;BME280;41486;52.502;13.486;2023-09-19T02:27:37;100105.78;;;17.37;100.00
55610;BME280;41486;52.502;13.486;2023-09-19T02:30:07;100109.59;;;17.65;100.00
55610;BME280;41486;52.502;13.486;2023-09-19T02:32:35;100108.91;;;17.40;100.00
55610;BME280;41486;52.502;13.486;2023-09-19T02:35:08;100112.81;;;17.29;100.00
55610;BME280;41486;52.502;13.486;2023-09-19T02:37:38;100104.63;;;17.31;100.00
55610;BME280;41486;52.502;13.486;2023-09-19T02:40:08;100111.13;;;17.28;100.00
55610;BME280;41486;52.502;13.486;2023-09-19T02:42:46;100111.28;;;17.35;100.00
55610;BME280;41486;52.502;13.486;2023-09-19T02:45:17;100104.16;;;17.27;100.00
55610;BME280;41486;52.502;13.486;2023-09-19T02:47:46;100115.28;;;17.31;100.00
55610;BME280;41486;52.502;13.486;2023-09-19T02:50:17;100121.78;;;17.28;100.00
55610;BME280;41486;52.502;13.486;2023-09-19T02:52:46;100119.53;;;17.17;100.00
55610;BME280;41486;52.502;13.486;2023-09-19T02:55:16;100122.16;;;17.25;100.00
55610;BME280;41486;52.502;13.486;2023-09-19T02:57:47;100127.31;;;17.18;100.00
55610;BME280;41486;52.502;13.486;2023-09-19T03:00:17;100122.91;;;17.34;100.00
55610;BME280;41486;52.502;13.486;2023-09-19T03:02:48;100124.88;;;17.40;100.00
55610;BME280;41486;52.502;13.486;2023-09-19T03:05:19;100125.53;;;17.42;100.00
55610;BME280;41486;52.502;13.486;2023-09-19T03:07:48;100125.63;;;17.57;100.00
55610;BME280;41486;52.502;13.486;2023-09-19T03:10:19;100135.31;;;17.50;100.00
55610;BME280;41486;52.502;13.486;2023-09-19T03:12:47;100139.75;;;17.58;100.00
55610;BME280;41486;52.502;13.486;2023-09-19T03:15:16;100136.31;;;17.72;100.00
55610;BME280;41486;52.502;13.486;2023-09-19T03:17:46;100139.25;;;17.54;100.00
55610;BME280;41486;52.502;13.486;2023-09-19T03:20:21;100140.53;;;17.66;100.00
55610;BME280;41486;52.502;13.486;2023-09-19T03:22:50;100134.50;;;17.73;100.00
55610;BME280;41486;52.502;13.486;2023-09-19T03:25:20;100133.41;;;17.59;100.00
55610;BME280;41486;52.502;13.486;2023-09-19T03:27:51;100139.69;;;17.66;100.00
55610;BME280;41486;52.502;13.486;2023-09-19T03:30:22;100146.38;;;17.62;100.00
55610;BME280;41486;52.502;13.486;2023-09-19T03:32:51;100148.81;;;17.72;100.00
55610;BME280;41486;52.502;13.486;2023-09-19T03:35:21;100151.69;;;17.85;100.00
55610;BME280;41486;52.502;13.486;2023-09-19T03:37:51;100145.66;;;17.91;100.00
55610;BME280;41486;52.502;13.486;2023-09-19T03:40:21;100149.97;;;17.92;100.00
55610;BME280;41486;52.502;13.486;2023-09-19T03:42:50;100152.69;;;17.84;100.00
55610;BME280;41486;52.502;13.486;2023-09-19T03:45:18;100154.88;;;17.80;100.00
55610;BME280;41486;52.502;13.486;2023-09-19T03:47:50;100158.75;;;17.78;100.00
55610;BME280;41486;52.502;13.486;2023-09-19T03:50:23;100153.94;;;17.73;100.00
55610;BME280;41486;52.502;13.486;2023-09-19T03:52:56;100159.94;;;17.75;100.00
55610;BME280;41486;52.502;13.486;2023-09-19T03:55:25;100167.72;;;17.77;100.00
55610;BME280;41486;52.502;13.486;2023-09-19T03:57:53;100169.09;;;17.73;100.00
55610;BME280;41486;52.502;13.486;2023-09-19T04:00:21;100167.72;;;17.77;100.00
55610;BME280;41486;52.502;13.486;2023-09-19T04:02:53;100172.53;;;17.81;100.00
55610;BME280;41486;52.502;13.486;2023-09-19T04:05:25;100175.13;;;17.66;100.00
55610;BME280;41486;52.502;13.486;2023-09-19T04:07:53;100164.53;;;17.58;100.00
55610;BME280;41486;52.502;13.486;2023-09-19T04:10:25;100178.94;;;17.64;100.00
55610;BME280;41486;52.502;13.486;2023-09-19T04:12:55;100173.47;;;17.65;100.00
55610;BME280;41486;52.502;13.486;2023-09-19T04:15:24;100175.84;;;17.52;100.00
55610;BME280;41486;52.502;13.486;2023-09-19T04:17:53;100171.19;;;17.54;100.00
55610;BME280;41486;52.502;13.486;2023-09-19T04:20:22;100182.63;;;17.55;100.00
55610;BME280;41486;52.502;13.486;2023-09-19T04:22:53;100184.44;;;17.62;100.00
55610;BME280;41486;52.502;13.486;2023-09-19T04:25:21;100177.47;;;17.61;100.00
55610;BME280;41486;52.502;13.486;2023-09-19T04:27:49;100180.59;;;17.65;100.00
55610;BME280;41486;52.502;13.486;2023-09-19T04:30:17;100186.09;;;17.63;100.00
55610;BME280;41486;52.502;13.486;2023-09-19T04:32:48;100186.09;;;17.63;100.00
55610;BME280;41486;52.502;13.486;2023-09-19T04:35:18;100194.09;;;17.63;100.00
55610;BME280;41486;52.502;13.486;2023-09-19T04:37:46;100200.22;;;17.64;100.00
55610;BME280;41486;52.502;13.486;2023-09-19T04:40:16;100209.38;;;17.61;100.00
55610;BME280;41486;52.502;13.486;2023-09-19T04:42:53;100204.25;;;17.60;100.00
55610;BME280;41486;52.502;13.486;2023-09-19T04:45:23;100196.78;;;17.55;100.00
55610;BME280;41486;52.502;13.486;2023-09-19T04:47:51;100209.91;;;17.57;100.00
55610;BME280;41486;52.502;13.486;2023-09-19T04:50:20;100206.78;;;17.53;100.00
55610;BME280;41486;52.502;13.486;2023-09-19T04:52:50;100212.41;;;17.58;100.00
55610;BME280;41486;52.502;13.486;2023-09-19T04:55:20;100216.94;;;17.49;100.00
55610;BME280;41486;52.502;13.486;2023-09-19T04:57:48;100215.97;;;17.42;100.00
55610;BME280;41486;52.502;13.486;2023-09-19T05:00:18;100221.06;;;17.52;100.00
55610;BME280;41486;52.502;13.486;2023-09-19T05:02:51;100226.38;;;17.52;100.00
55610;BME280;41486;52.502;13.486;2023-09-19T05:05:19;100228.09;;;17.45;100.00
55610;BME280;41486;52.502;13.486;2023-09-19T05:07:49;100224.25;;;17.47;100.00
55610;BME280;41486;52.502;13.486;2023-09-19T05:10:19;100227.09;;;17.46;100.00
55610;BME280;41486;52.502;13.486;2023-09-19T05:12:47;100229.59;;;17.39;100.00
55610;BME280;41486;52.502;13.486;2023-09-19T05:15:19;100230.31;;;17.25;100.00
55610;BME280;41486;52.502;13.486;2023-09-19T05:17:50;100232.44;;;17.38;100.00
55610;BME280;41486;52.502;13.486;2023-09-19T05:20:23;100234.63;;;17.34;100.00
55610;BME280;41486;52.502;13.486;2023-09-19T05:22:59;100239.25;;;17.32;100.00
55610;BME280;41486;52.502;13.486;2023-09-19T05:25:31;100252.41;;;17.33;100.00
55610;BME280;41486;52.502;13.486;2023-09-19T05:28:00;100255.91;;;17.26;100.00
55610;BME280;41486;52.502;13.486;2023-09-19T05:30:30;100257.94;;;17.15;100.00
55610;BME280;41486;52.502;13.486;2023-09-19T05:32:58;100252.06;;;17.28;100.00
55610;BME280;41486;52.502;13.486;2023-09-19T05:35:26;100257.56;;;17.27;100.00
55610;BME280;41486;52.502;13.486;2023-09-19T05:37:54;100260.75;;;17.22;100.00
55610;BME280;41486;52.502;13.486;2023-09-19T05:40:23;100270.06;;;17.26;100.00
55610;BME280;41486;52.502;13.486;2023-09-19T05:42:53;100280.03;;;17.16;100.00
55610;BME280;41486;52.502;13.486;2023-09-19T05:45:21;100274.22;;;17.12;100.00
55610;BME280;41486;52.502;13.486;2023-09-19T05:47:50;100281.34;;;17.20;100.00
55610;BME280;41486;52.502;13.486;2023-09-19T05:50:19;100283.00;;;17.21;100.00
55610;BME280;41486;52.502;13.486;2023-09-19T05:52:51;100293.34;;;17.16;100.00
55610;BME280;41486;52.502;13.486;2023-09-19T05:55:21;100296.69;;;17.10;100.00
55610;BME280;41486;52.502;13.486;2023-09-19T05:57:53;100294.31;;;17.23;100.00
55610;BME280;41486;52.502;13.486;2023-09-19T06:00:23;100293.34;;;17.08;100.00
55610;BME280;41486;52.502;13.486;2023-09-19T06:02:55;100310.28;;;17.07;100.00
55610;BME280;41486;52.502;13.486;2023-09-19T06:05:25;100308.94;;;17.11;100.00
55610;BME280;41486;52.502;13.486;2023-09-19T06:07:54;100317.75;;;17.11;100.00
55610;BME280;41486;52.502;13.486;2023-09-19T06:10:27;100313.13;;;17.05;100.00
55610;BME280;41486;52.502;13.486;2023-09-19T06:12:57;100330.06;;;17.04;100.00
55610;BME280;41486;52.502;13.486;2023-09-19T06:15:26;100329.88;;;17.14;100.00
55610;BME280;41486;52.502;13.486;2023-09-19T06:17:55;100337.56;;;17.00;100.00
55610;BME280;41486;52.502;13.486;2023-09-19T06:20:25;100337.03;;;17.13;100.00
55610;BME280;41486;52.502;13.486;2023-09-19T06:22:54;100337.19;;;17.03;100.00
55610;BME280;41486;52.502;13.486;2023-09-19T06:25:22;100334.38;;;17.22;100.00
55610;BME280;41486;52.502;13.486;2023-09-19T06:27:51;100344.00;;;17.23;100.00
55610;BME280;41486;52.502;13.486;2023-09-19T06:30:23;100342.19;;;17.15;100.00
55610;BME280;41486;52.502;13.486;2023-09-19T06:32:55;100345.50;;;17.17;100.00
55610;BME280;41486;52.502;13.486;2023-09-19T06:35:25;100345.81;;;17.22;100.00
55610;BME280;41486;52.502;13.486;2023-09-19T06:37:53;100346.50;;;17.32;100.00
55610;BME280;41486;52.502;13.486;2023-09-19T06:40:25;100345.00;;;17.22;100.00
55610;BME280;41486;52.502;13.486;2023-09-19T06:42:55;100358.31;;;17.13;100.00
55610;BME280;41486;52.502;13.486;2023-09-19T06:45:24;100363.13;;;17.26;100.00
55610;BME280;41486;52.502;13.486;2023-09-19T06:47:54;100355.13;;;17.34;100.00
55610;BME280;41486;52.502;13.486;2023-09-19T06:50:26;100359.44;;;17.35;100.00
55610;BME280;41486;52.502;13.486;2023-09-19T06:52:55;100356.44;;;17.39;100.00
55610;BME280;41486;52.502;13.486;2023-09-19T06:55:25;100361.94;;;17.37;100.00
55610;BME280;41486;52.502;13.486;2023-09-19T06:57:55;100372.59;;;17.37;100.00
55610;BME280;41486;52.502;13.486;2023-09-19T07:00:24;100374.06;;;17.40;100.00
55610;BME280;41486;52.502;13.486;2023-09-19T07:02:56;100368.72;;;17.56;100.00
55610;BME280;41486;52.502;13.486;2023-09-19T07:05:26;100371.88;;;17.52;100.00
55610;BME280;41486;52.502;13.486;2023-09-19T07:07:54;100361.41;;;17.50;100.00
55610;BME280;41486;52.502;13.486;2023-09-19T07:10:23;100369.66;;;17.80;100.00
55610;BME280;41486;52.502;13.486;2023-09-19T07:12:56;100378.13;;;17.84;100.00
55610;BME280;41486;52.502;13.486;2023-09-19T07:15:32;100377.25;;;18.00;100.00
55610;BME280;41486;52.502;13.486;2023-09-19T07:18:04;100389.53;;;18.09;100.00
55610;BME280;41486;52.502;13.486;2023-09-19T07:20:33;100383.41;;;18.32;100.00
55610;BME280;41486;52.502;13.486;2023-09-19T07:23:01;100378.22;;;18.38;100.00
55610;BME280;41486;52.502;13.486;2023-09-19T07:25:30;100420.19;;;18.36;100.00
55610;BME280;41486;52.502;13.486;2023-09-19T07:27:59;100399.41;;;18.32;100.00
55610;BME280;41486;52.502;13.486;2023-09-19T07:30:29;100392.97;;;18.26;100.00
55610;BME280;41486;52.502;13.486;2023-09-19T07:32:57;100405.09;;;18.28;100.00
55610;BME280;41486;52.502;13.486;2023-09-19T07:35:25;100394.59;;;18.27;100.00
55610;BME280;41486;52.502;13.486;2023-09-19T07:37:54;100391.59;;;18.30;100.00
55610;BME280;41486;52.502;13.486;2023-09-19T07:40:26;100401.69;;;18.43;100.00
55610;BME280;41486;52.502;13.486;2023-09-19T07:42:56;100405.78;;;18.54;100.00
55610;BME280;41486;52.502;13.486;2023-09-19T07:45:30;100418.38;;;18.37;97.57
55610;BME280;41486;52.502;13.486;2023-09-19T07:47:59;100411.72;;;18.33;98.92
55610;BME280;41486;52.502;13.486;2023-09-19T07:50:28;100429.09;;;18.20;100.00
55610;BME280;41486;52.502;13.486;2023-09-19T07:52:56;100417.94;;;18.25;100.00
55610;BME280;41486;52.502;13.486;2023-09-19T07:55:25;100418.09;;;18.23;99.56
55610;BME280;41486;52.502;13.486;2023-09-19T07:57:53;100428.75;;;18.23;95.70
55610;BME280;41486;52.502;13.486;2023-09-19T08:00:21;100432.44;;;18.22;98.05
55610;BME280;41486;52.502;13.486;2023-09-19T08:02:51;100444.53;;;18.33;98.62
55610;BME280;41486;52.502;13.486;2023-09-19T08:05:27;100444.16;;;18.36;98.64
55610;BME280;41486;52.502;13.486;2023-09-19T08:07:55;100445.97;;;18.44;97.67
55610;BME280;41486;52.502;13.486;2023-09-19T08:10:26;100437.75;;;18.54;95.30
55610;BME280;41486;52.502;13.486;2023-09-19T08:12:54;100443.13;;;18.45;93.39
55610;BME280;41486;52.502;13.486;2023-09-19T08:15:26;100433.00;;;18.41;93.20
55610;BME280;41486;52.502;13.486;2023-09-19T08:17:56;100435.50;;;18.42;93.52
55610;BME280;41486;52.502;13.486;2023-09-19T08:20:24;100436.03;;;18.38;93.70
55610;BME280;41486;52.502;13.486;2023-09-19T08:22:53;100419.97;;;18.54;93.20
55610;BME280;41486;52.502;13.486;2023-09-19T08:25:22;100430.00;;;18.67;91.38
55610;BME280;41486;52.502;13.486;2023-09-19T08:27:52;100440.78;;;18.51;89.24
55610;BME280;41486;52.502;13.486;2023-09-19T08:30:21;100436.66;;;18.40;90.04
55610;BME280;41486;52.502;13.486;2023-09-19T08:32:51;100437.22;;;18.27;88.22
55610;BME280;41486;52.502;13.486;2023-09-19T08:35:26;100437.75;;;18.22;87.99
55610;BME280;41486;52.502;13.486;2023-09-19T08:37:55;100443.22;;;18.21;89.56
55610;BME280;41486;52.502;13.486;2023-09-19T08:40:23;100451.91;;;18.15;90.27
55610;BME280;41486;52.502;13.486;2023-09-19T08:42:57;100445.28;;;18.10;89.00
55610;BME280;41486;52.502;13.486;2023-09-19T08:45:26;100451.44;;;18.11;88.54
55610;BME280;41486;52.502;13.486;2023-09-19T08:48:02;100448.09;;;18.09;90.25
55610;BME280;41486;52.502;13.486;2023-09-19T08:50:40;100454.91;;;18.11;88.57
55610;BME280;41486;52.502;13.486;2023-09-19T08:53:11;100455.28;;;18.08;89.17
55610;BME280;41486;52.502;13.486;2023-09-19T08:55:43;100459.72;;;18.16;87.29
55610;BME280;41486;52.502;13.486;2023-09-19T08:58:16;100466.00;;;18.32;87.21
55610;BME280;41486;52.502;13.486;2023-09-19T09:00:52;100469.09;;;18.43;86.69
55610;BME280;41486;52.502;13.486;2023-09-19T09:03:22;100465.97;;;18.40;85.80
55610;BME280;41486;52.502;13.486;2023-09-19T09:05:53;100471.25;;;18.48;85.91
55610;BME280;41486;52.502;13.486;2023-09-19T09:08:22;100475.31;;;18.36;86.56
55610;BME280;41486;52.502;13.486;2023-09-19T09:10:51;100463.63;;;18.45;87.40
55610;BME280;41486;52.502;13.486;2023-09-19T09:13:20;100473.13;;;18.71;85.99
55610;BME280;41486;52.502;13.486;2023-09-19T09:15:49;100476.06;;;18.53;82.48
55610;BME280;41486;52.502;13.486;2023-09-19T09:18:18;100470.28;;;18.41;83.26
55610;BME280;41486;52.502;13.486;2023-09-19T09:20:50;100477.28;;;18.42;81.82
55610;BME280;41486;52.502;13.486;2023-09-19T09:23:19;100485.19;;;18.58;81.68
55610;BME280;41486;52.502;13.486;2023-09-19T09:25:49;100490.44;;;18.75;82.26
55610;BME280;41486;52.502;13.486;2023-09-19T09:28:23;100489.88;;;18.88;78.31
55610;BME280;41486;52.502;13.486;2023-09-19T09:30:54;100485.19;;;18.98;82.02
55610;BME280;41486;52.502;13.486;2023-09-19T09:33:24;100481.28;;;19.09;78.78
55610;BME280;41486;52.502;13.486;2023-09-19T09:35:54;100489.84;;;19.19;76.09
55610;BME280;41486;52.502;13.486;2023-09-19T09:38:26;100484.97;;;19.08;74.93
55610;BME280;41486;52.502;13.486;2023-09-19T09:40:56;100485.47;;;18.72;75.07
55610;BME280;41486;52.502;13.486;2023-09-19T09:43:30;100491.94;;;18.77;73.74
55610;BME280;41486;52.502;13.486;2023-09-19T09:46:10;100486.00;;;18.99;72.11
55610;BME280;41486;52.502;13.486;2023-09-19T09:49:01;100492.31;;;19.06;72.45
55610;BME280;41486;52.502;13.486;2023-09-19T09:52:01;100488.97;;;19.04;71.17
55610;BME280;41486;52.502;13.486;2023-09-19T09:54:58;100485.25;;;19.36;68.57
55610;BME280;41486;52.502;13.486;2023-09-19T09:57:26;100495.25;;;19.58;68.51
55610;BME280;41486;52.502;13.486;2023-09-19T09:59:57;100497.53;;;19.46;65.92
55610;BME280;41486;52.502;13.486;2023-09-19T10:02:43;100497.75;;;19.36;66.37
55610;BME280;41486;52.502;13.486;2023-09-19T10:05:14;100496.00;;;19.43;66.66
55610;BME280;41486;52.502;13.486;2023-09-19T10:07:49;100496.28;;;19.33;64.21
55610;BME280;41486;52.502;13.486;2023-09-19T10:10:33;100506.66;;;19.28;65.92
55610;BME280;41486;52.502;13.486;2023-09-19T10:13:16;100519.09;;;19.36;65.96
55610;BME280;41486;52.502;13.486;2023-09-19T10:15:55;100512.53;;;19.23;59.14
55610;BME280;41486;52.502;13.486;2023-09-19T10:18:26;100519.81;;;19.30;57.62
55610;BME280;41486;52.502;13.486;2023-09-19T10:20:59;100503.63;;;19.31;59.46
55610;BME280;41486;52.502;13.486;2023-09-19T10:23:37;100506.16;;;19.48;59.74
55610;BME280;41486;52.502;13.486;2023-09-19T10:26:11;100499.72;;;19.42;58.57
55610;BME280;41486;52.502;13.486;2023-09-19T10:28:46;100495.06;;;19.59;58.84
55610;BME280;41486;52.502;13.486;2023-09-19T10:31:19;100499.06;;;19.78;58.00
55610;BME280;41486;52.502;13.486;2023-09-19T10:33:49;100500.59;;;19.73;57.87
55610;BME280;41486;52.502;13.486;2023-09-19T10:36:18;100501.19;;;19.83;57.97
55610;BME280;41486;52.502;13.486;2023-09-19T10:38:49;100497.66;;;19.91;57.74
55610;BME280;41486;52.502;13.486;2023-09-19T10:41:29;100499.31;;;20.07;55.15
55610;BME280;41486;52.502;13.486;2023-09-19T10:44:03;100486.88;;;20.29;54.51
55610;BME280;41486;52.502;13.486;2023-09-19T10:47:00;100486.69;;;20.45;54.24
55610;BME280;41486;52.502;13.486;2023-09-19T10:49:51;100477.88;;;20.67;52.70
55610;BME280;41486;52.502;13.486;2023-09-19T10:52:33;100491.63;;;20.78;51.99
55610;BME280;41486;52.502;13.486;2023-09-19T10:55:15;100499.22;;;20.30;53.33
55610;BME280;41486;52.502;13.486;2023-09-19T10:58:02;100498.56;;;20.43;50.81
55610;BME280;41486;52.502;13.486;2023-09-19T11:00:53;100495.16;;;20.19;49.87
55610;BME280;41486;52.502;13.486;2023-09-19T11:03:23;100498.22;;;20.31;49.23
55610;BME280;41486;52.502;13.486;2023-09-19T11:06:02;100509.25;;;20.28;50.00
55610;BME280;41486;52.502;13.486;2023-09-19T11:08:56;100509.44;;;20.56;48.83
55610;BME280;41486;52.502;13.486;2023-09-19T11:11:40;100514.41;;;20.29;49.74
55610;BME280;41486;52.502;13.486;2023-09-19T11:14:45;100513.97;;;20.26;49.50
55610;BME280;41486;52.502;13.486;2023-09-19T11:17:34;100509.81;;;20.23;49.71
55610;BME280;41486;52.502;13.486;2023-09-19T11:20:23;100504.84;;;20.50;48.87
55610;BME280;41486;52.502;13.486;2023-09-19T11:23:19;100519.38;;;20.47;49.22
55610;BME280;41486;52.502;13.486;2023-09-19T11:25:54;100516.25;;;20.59;48.77
55610;BME280;41486;52.502;13.486;2023-09-19T11:28:35;100517.66;;;20.40;47.49
55610;BME280;41486;52.502;13.486;2023-09-19T11:40:39;100514.47;;;20.66;47.02
55610;BME280;41486;52.502;13.486;2023-09-19T11:43:28;100523.19;;;20.38;47.70
55610;BME280;41486;52.502;13.486;2023-09-19T11:46:07;100514.78;;;20.11;48.11
55610;BME280;41486;52.502;13.486;2023-09-19T11:48:38;100510.00;;;20.07;48.93
55610;BME280;41486;52.502;13.486;2023-09-19T11:51:13;100511.19;;;20.04;48.99
55610;BME280;41486;52.502;13.486;2023-09-19T11:53:52;100517.25;;;20.13;48.80
55610;BME280;41486;52.502;13.486;2023-09-19T11:56:26;100513.13;;;20.10;49.42
55610;BME280;41486;52.502;13.486;2023-09-19T11:58:56;100516.19;;;20.37;49.17
55610;BME280;41486;52.502;13.486;2023-09-19T12:01:29;100513.56;;;20.59;49.10
55610;BME280;41486;52.502;13.486;2023-09-19T12:04:00;100507.44;;;20.95;46.58
55610;BME280;41486;52.502;13.486;2023-09-19T12:06:31;100518.50;;;20.92;45.45
55610;BME280;41486;52.502;13.486;2023-09-19T12:09:00;100502.66;;;21.34;44.43
55610;BME280;41486;52.502;13.486;2023-09-19T12:11:31;100525.25;;;21.68;44.10
55610;BME280;41486;52.502;13.486;2023-09-19T12:14:02;100526.94;;;21.75;44.92
55610;BME280;41486;52.502;13.486;2023-09-19T12:16:31;100526.28;;;21.52;43.62
55610;BME280;41486;52.502;13.486;2023-09-19T12:19:20;100516.63;;;21.51;43.55
55610;BME280;41486;52.502;13.486;2023-09-19T12:21:57;100524.88;;;21.71;42.73
55610;BME280;41486;52.502;13.486;2023-09-19T12:24:27;100527.97;;;22.38;42.13
55610;BME280;41486;52.502;13.486;2023-09-19T12:27:03;100525.59;;;22.15;43.34
55610;BME280;41486;52.502;13.486;2023-09-19T12:29:43;100521.56;;;22.04;43.25
55610;BME280;41486;52.502;13.486;2023-09-19T12:32:12;100530.81;;;21.95;43.17
55610;BME280;41486;52.502;13.486;2023-09-19T12:34:51;100529.44;;;22.05;43.32
55610;BME280;41486;52.502;13.486;2023-09-19T12:37:20;100520.41;;;21.85;41.87
55610;BME280;41486;52.502;13.486;2023-09-19T12:39:50;100535.78;;;22.33;41.73
55610;BME280;41486;52.502;13.486;2023-09-19T12:42:23;100538.44;;;22.61;41.27
55610;BME280;41486;52.502;13.486;2023-09-19T12:44:52;100525.03;;;23.30;39.34
55610;BME280;41486;52.502;13.486;2023-09-19T12:47:23;100521.34;;;22.76;39.98
55610;BME280;41486;52.502;13.486;2023-09-19T12:50:09;100513.97;;;22.91;39.67
55610;BME280;41486;52.502;13.486;2023-09-19T12:52:43;100517.94;;;22.47;40.78
55610;BME280;41486;52.502;13.486;2023-09-19T12:55:25;100517.34;;;21.38;43.20
55610;BME280;41486;52.502;13.486;2023-09-19T12:57:59;100516.41;;;22.02;42.09
55610;BME280;41486;52.502;13.486;2023-09-19T13:00:33;100509.19;;;22.38;41.33
55610;BME280;41486;52.502;13.486;2023-09-19T13:03:15;100511.31;;;22.43;41.37
55610;BME280;41486;52.502;13.486;2023-09-19T13:05:52;100510.84;;;22.04;41.86
55610;BME280;41486;52.502;13.486;2023-09-19T13:08:24;100511.22;;;21.44;42.38
55610;BME280;41486;52.502;13.486;2023-09-19T13:10:59;100514.47;;;21.39;42.98
55610;BME280;41486;52.502;13.486;2023-09-19T13:13:30;100513.44;;;21.62;43.43